sensor_id;sensor_type;location;lat;lon;timestamp;P1;durP1;ratioP1;P2;durP2;ratioP2
35667;SDS011;22158;59.280;17.806;2023-11-21T00:01:45;5.20;;;3.08;;
35667;SDS011;22158;59.280;17.806;2023-11-21T00:04:11;6.28;;;3.65;;
35667;SDS011;22158;59.280;17.806;2023-11-21T00:06:36;6.95;;;3.38;;
35667;SDS011;22158;59.280;17.806;2023-11-21T00:09:02;6.00;;;3.80;;
35667;SDS011;22158;59.280;17.806;2023-11-21T00:11:27;5.30;;;3.08;;
35667;SDS011;22158;59.280;17.806;2023-11-21T00:13:54;3.88;;;3.10;;
35667;SDS011;22158;59.280;17.806;2023-11-21T00:16:19;3.92;;;2.63;;
35667;SDS011;22158;59.280;17.806;2023-11-21T00:18:47;4.85;;;2.88;;
35667;SDS011;22158;59.280;17.806;2023-11-21T00:21:12;5.25;;;3.17;;
35667;SDS011;22158;59.280;17.806;2023-11-21T00:23:38;4.30;;;3.05;;
35667;SDS011;22158;59.280;17.806;2023-11-21T00:26:03;8.98;;;3.47;;
35667;SDS011;22158;59.280;17.806;2023-11-21T00:28:29;6.03;;;3.38;;
35667;SDS011;22158;59.280;17.806;2023-11-21T00:30:55;7.32;;;3.60;;
35667;SDS011;22158;59.280;17.806;2023-11-21T00:33:20;6.25;;;3.92;;
35667;SDS011;22158;59.280;17.806;2023-11-21T00:35:46;6.97;;;3.97;;
35667;SDS011;22158;59.280;17.806;2023-11-21T00:38:12;6.68;;;4.53;;
35667;SDS011;22158;59.280;17.806;2023-11-21T00:40:37;9.77;;;4.90;;
35667;SDS011;22158;59.280;17.806;2023-11-21T00:43:03;7.57;;;4.53;;
35667;SDS011;22158;59.280;17.806;2023-11-21T00:45:28;8.10;;;4.32;;
35667;SDS011;22158;59.280;17.806;2023-11-21T00:47:54;8.07;;;4.60;;
35667;SDS011;22158;59.280;17.806;2023-11-21T00:50:21;7.57;;;4.78;;
35667;SDS011;22158;59.280;17.806;2023-11-21T00:52:47;9.35;;;4.85;;
35667;SDS011;22158;59.280;17.806;2023-11-21T00:55:12;9.15;;;5.35;;
35667;SDS011;22158;59.280;17.806;2023-11-21T00:57:38;11.57;;;5.93;;
35667;SDS011;22158;59.280;17.806;2023-11-21T01:00:04;10.07;;;4.93;;
35667;SDS011;22158;59.280;17.806;2023-11-21T01:02:41;11.07;;;5.25;;
35667;SDS011;22158;59.280;17.806;2023-11-21T01:05:09;11.73;;;5.47;;
35667;SDS011;22158;59.280;17.806;2023-11-21T01:07:35;10.80;;;5.20;;
35667;SDS011;22158;59.280;17.806;2023-11-21T01:10:02;10.90;;;5.85;;
35667;SDS011;22158;59.280;17.806;2023-11-21T01:12:30;10.35;;;4.97;;
35667;SDS011;22158;59.280;17.806;2023-11-21T01:14:56;9.30;;;6.00;;
35667;SDS011;22158;59.280;17.806;2023-11-21T01:17:25;11.13;;;6.18;;
35667;SDS011;22158;59.280;17.806;2023-11-21T01:19:50;10.95;;;5.78;;
35667;SDS011;22158;59.280;17.806;2023-11-21T01:22:16;8.68;;;4.75;;
35667;SDS011;22158;59.280;17.806;2023-11-21T01:24:43;13.18;;;5.57;;
35667;SDS011;22158;59.280;17.806;2023-11-21T01:27:08;10.93;;;4.78;;
35667;SDS011;22158;59.280;17.806;2023-11-21T01:29:34;9.18;;;5.18;;
35667;SDS011;22158;59.280;17.806;2023-11-21T01:32:00;10.10;;;5.70;;
35667;SDS011;22158;59.280;17.806;2023-11-21T01:34:27;9.98;;;5.45;;
35667;SDS011;22158;59.280;17.806;2023-11-21T01:36:53;8.48;;;5.35;;
35667;SDS011;22158;59.280;17.806;2023-11-21T01:39:19;10.77;;;5.07;;
35667;SDS011;22158;59.280;17.806;2023-11-21T01:41:48;8.88;;;5.00;;
35667;SDS011;22158;59.280;17.806;2023-11-21T01:44:15;10.18;;;5.78;;
35667;SDS011;22158;59.280;17.806;2023-11-21T01:46:42;8.35;;;4.53;;
35667;SDS011;22158;59.280;17.806;2023-11-21T01:49:07;8.18;;;4.43;;
35667;SDS011;22158;59.280;17.806;2023-11-21T01:51:38;8.40;;;4.57;;
35667;SDS011;22158;59.280;17.806;2023-11-21T01:54:08;8.63;;;5.35;;
35667;SDS011;22158;59.280;17.806;2023-11-21T01:56:34;7.93;;;4.18;;
35667;SDS011;22158;59.280;17.806;2023-11-21T01:59:00;7.80;;;4.53;;
35667;SDS011;22158;59.280;17.806;2023-11-21T02:01:25;9.50;;;4.63;;
35667;SDS011;22158;59.280;17.806;2023-11-21T02:03:51;8.15;;;4.47;;
35667;SDS011;22158;59.280;17.806;2023-11-21T02:06:17;8.57;;;4.85;;
35667;SDS011;22158;59.280;17.806;2023-11-21T02:08:43;6.05;;;3.92;;
35667;SDS011;22158;59.280;17.806;2023-11-21T02:11:09;8.77;;;4.63;;
35667;SDS011;22158;59.280;17.806;2023-11-21T02:13:37;6.95;;;3.90;;
35667;SDS011;22158;59.280;17.806;2023-11-21T02:16:08;7.80;;;4.20;;
35667;SDS011;22158;59.280;17.806;2023-11-21T02:18:34;5.03;;;3.00;;
35667;SDS011;22158;59.280;17.806;2023-11-21T02:21:01;6.40;;;3.38;;
35667;SDS011;22158;59.280;17.806;2023-11-21T02:23:29;6.13;;;3.55;;
35667;SDS011;22158;59.280;17.806;2023-11-21T02:25:55;5.75;;;3.53;;
35667;SDS011;22158;59.280;17.806;2023-11-21T02:28:21;6.68;;;3.88;;
35667;SDS011;22158;59.280;17.806;2023-11-21T02:30:51;6.03;;;3.72;;
35667;SDS011;22158;59.280;17.806;2023-11-21T02:33:21;5.10;;;2.80;;
35667;SDS011;22158;59.280;17.806;2023-11-21T02:35:46;5.53;;;3.30;;
35667;SDS011;22158;59.280;17.806;2023-11-21T02:38:12;5.40;;;3.45;;
35667;SDS011;22158;59.280;17.806;2023-11-21T02:40:38;6.18;;;3.47;;
35667;SDS011;22158;59.280;17.806;2023-11-21T02:43:04;6.47;;;3.40;;
35667;SDS011;22158;59.280;17.806;2023-11-21T02:45:30;7.43;;;3.72;;
35667;SDS011;22158;59.280;17.806;2023-11-21T02:47:56;9.60;;;3.30;;
35667;SDS011;22158;59.280;17.806;2023-11-21T02:50:22;3.75;;;2.53;;
35667;SDS011;22158;59.280;17.806;2023-11-21T02:52:48;6.60;;;3.42;;
35667;SDS011;22158;59.280;17.806;2023-11-21T02:55:14;4.72;;;3.13;;
35667;SDS011;22158;59.280;17.806;2023-11-21T02:57:40;7.88;;;3.90;;
35667;SDS011;22158;59.280;17.806;2023-11-21T03:00:06;5.95;;;3.50;;
35667;SDS011;22158;59.280;17.806;2023-11-21T03:02:33;4.90;;;3.00;;
35667;SDS011;22158;59.280;17.806;2023-11-21T03:05:04;5.82;;;3.17;;
35667;SDS011;22158;59.280;17.806;2023-11-21T03:07:31;6.32;;;3.30;;
35667;SDS011;22158;59.280;17.806;2023-11-21T03:09:56;4.18;;;3.20;;
35667;SDS011;22158;59.280;17.806;2023-11-21T03:12:22;4.43;;;2.90;;
35667;SDS011;22158;59.280;17.806;2023-11-21T03:14:48;3.85;;;2.80;;
35667;SDS011;22158;59.280;17.806;2023-11-21T03:17:13;4.88;;;3.10;;
35667;SDS011;22158;59.280;17.806;2023-11-21T03:19:41;5.88;;;3.40;;
35667;SDS011;22158;59.280;17.806;2023-11-21T03:22:07;8.35;;;3.75;;
35667;SDS011;22158;59.280;17.806;2023-11-21T03:24:33;6.03;;;3.55;;
35667;SDS011;22158;59.280;17.806;2023-11-21T03:26:59;5.57;;;3.17;;
35667;SDS011;22158;59.280;17.806;2023-11-21T03:29:25;7.55;;;3.63;;
35667;SDS011;22158;59.280;17.806;2023-11-21T03:31:51;4.40;;;3.28;;
35667;SDS011;22158;59.280;17.806;2023-11-21T03:34:22;4.22;;;2.95;;
35667;SDS011;22158;59.280;17.806;2023-11-21T03:36:49;5.22;;;3.58;;
35667;SDS011;22158;59.280;17.806;2023-11-21T03:39:14;5.70;;;3.38;;
35667;SDS011;22158;59.280;17.806;2023-11-21T03:41:40;7.20;;;3.25;;
35667;SDS011;22158;59.280;17.806;2023-11-21T03:44:06;6.57;;;3.72;;
35667;SDS011;22158;59.280;17.806;2023-11-21T03:46:31;6.50;;;3.00;;
35667;SDS011;22158;59.280;17.806;2023-11-21T03:48:57;5.88;;;3.38;;
35667;SDS011;22158;59.280;17.806;2023-11-21T03:51:22;8.07;;;4.00;;
35667;SDS011;22158;59.280;17.806;2023-11-21T03:53:48;5.70;;;3.20;;
35667;SDS011;22158;59.280;17.806;2023-11-21T03:56:14;5.55;;;3.25;;
35667;SDS011;22158;59.280;17.806;2023-11-21T03:58:39;7.25;;;4.35;;
35667;SDS011;22158;59.280;17.806;2023-11-21T04:01:05;5.50;;;3.72;;
35667;SDS011;22158;59.280;17.806;2023-11-21T04:03:31;5.28;;;3.85;;
35667;SDS011;22158;59.280;17.806;2023-11-21T04:05:56;6.25;;;3.65;;
35667;SDS011;22158;59.280;17.806;2023-11-21T04:08:22;5.93;;;3.65;;
35667;SDS011;22158;59.280;17.806;2023-11-21T04:10:47;7.90;;;3.67;;
35667;SDS011;22158;59.280;17.806;2023-11-21T04:13:13;5.40;;;3.25;;
35667;SDS011;22158;59.280;17.806;2023-11-21T04:15:39;6.63;;;3.75;;
35667;SDS011;22158;59.280;17.806;2023-11-21T04:18:04;6.10;;;3.70;;
35667;SDS011;22158;59.280;17.806;2023-11-21T04:20:30;5.75;;;3.33;;
35667;SDS011;22158;59.280;17.806;2023-11-21T04:22:56;8.38;;;3.97;;
35667;SDS011;22158;59.280;17.806;2023-11-21T04:25:21;5.75;;;3.75;;
35667;SDS011;22158;59.280;17.806;2023-11-21T04:27:48;6.00;;;3.45;;
35667;SDS011;22158;59.280;17.806;2023-11-21T04:30:14;6.05;;;3.53;;
35667;SDS011;22158;59.280;17.806;2023-11-21T04:32:40;6.55;;;3.55;;
35667;SDS011;22158;59.280;17.806;2023-11-21T04:35:06;4.50;;;3.13;;
35667;SDS011;22158;59.280;17.806;2023-11-21T04:37:33;6.05;;;3.03;;
35667;SDS011;22158;59.280;17.806;2023-11-21T04:39:59;5.03;;;3.38;;
35667;SDS011;22158;59.280;17.806;2023-11-21T04:42:25;4.60;;;3.30;;
35667;SDS011;22158;59.280;17.806;2023-11-21T04:44:50;5.95;;;2.90;;
35667;SDS011;22158;59.280;17.806;2023-11-21T04:47:17;5.88;;;3.78;;
35667;SDS011;22158;59.280;17.806;2023-11-21T04:49:45;4.60;;;3.13;;
35667;SDS011;22158;59.280;17.806;2023-11-21T04:52:12;4.82;;;3.45;;
35667;SDS011;22158;59.280;17.806;2023-11-21T04:54:37;4.95;;;3.13;;
35667;SDS011;22158;59.280;17.806;2023-11-21T04:57:04;4.22;;;2.88;;
35667;SDS011;22158;59.280;17.806;2023-11-21T04:59:32;4.80;;;2.80;;
35667;SDS011;22158;59.280;17.806;2023-11-21T05:01:58;4.75;;;2.80;;
35667;SDS011;22158;59.280;17.806;2023-11-21T05:04:25;4.47;;;2.78;;
35667;SDS011;22158;59.280;17.806;2023-11-21T05:06:50;5.63;;;3.20;;
35667;SDS011;22158;59.280;17.806;2023-11-21T05:09:16;5.22;;;3.15;;
35667;SDS011;22158;59.280;17.806;2023-11-21T05:11:42;4.18;;;2.67;;
35667;SDS011;22158;59.280;17.806;2023-11-21T05:14:08;4.63;;;2.92;;
35667;SDS011;22158;59.280;17.806;2023-11-21T05:16:33;4.85;;;2.60;;
35667;SDS011;22158;59.280;17.806;2023-11-21T05:19:00;4.53;;;2.78;;
35667;SDS011;22158;59.280;17.806;2023-11-21T05:21:26;3.33;;;2.60;;
35667;SDS011;22158;59.280;17.806;2023-11-21T05:23:52;2.72;;;2.30;;
35667;SDS011;22158;59.280;17.806;2023-11-21T05:26:18;5.03;;;2.92;;
35667;SDS011;22158;59.280;17.806;2023-11-21T05:28:43;4.60;;;3.63;;
35667;SDS011;22158;59.280;17.806;2023-11-21T05:31:09;3.95;;;2.70;;
35667;SDS011;22158;59.280;17.806;2023-11-21T05:33:35;4.78;;;3.10;;
35667;SDS011;22158;59.280;17.806;2023-11-21T05:36:01;5.07;;;3.28;;
35667;SDS011;22158;59.280;17.806;2023-11-21T05:38:27;4.68;;;2.80;;
35667;SDS011;22158;59.280;17.806;2023-11-21T05:40:52;5.78;;;3.05;;
35667;SDS011;22158;59.280;17.806;2023-11-21T05:43:19;4.05;;;2.80;;
35667;SDS011;22158;59.280;17.806;2023-11-21T05:45:45;3.83;;;3.38;;
35667;SDS011;22158;59.280;17.806;2023-11-21T05:48:10;4.13;;;3.00;;
35667;SDS011;22158;59.280;17.806;2023-11-21T05:50:36;4.70;;;3.00;;
35667;SDS011;22158;59.280;17.806;2023-11-21T05:53:03;3.92;;;2.75;;
35667;SDS011;22158;59.280;17.806;2023-11-21T05:55:28;4.57;;;2.90;;
35667;SDS011;22158;59.280;17.806;2023-11-21T05:57:54;3.97;;;2.72;;
35667;SDS011;22158;59.280;17.806;2023-11-21T06:00:20;5.70;;;4.13;;
35667;SDS011;22158;59.280;17.806;2023-11-21T06:02:50;5.88;;;3.67;;
35667;SDS011;22158;59.280;17.806;2023-11-21T06:05:18;3.95;;;3.03;;
35667;SDS011;22158;59.280;17.806;2023-11-21T06:07:45;4.30;;;2.83;;
35667;SDS011;22158;59.280;17.806;2023-11-21T06:10:11;6.18;;;2.92;;
35667;SDS011;22158;59.280;17.806;2023-11-21T06:12:39;3.65;;;2.90;;
35667;SDS011;22158;59.280;17.806;2023-11-21T06:15:07;4.63;;;3.00;;
35667;SDS011;22158;59.280;17.806;2023-11-21T06:17:34;8.27;;;3.20;;
35667;SDS011;22158;59.280;17.806;2023-11-21T06:20:04;5.20;;;2.90;;
35667;SDS011;22158;59.280;17.806;2023-11-21T06:22:37;3.88;;;2.65;;
35667;SDS011;22158;59.280;17.806;2023-11-21T06:25:04;4.53;;;3.28;;
35667;SDS011;22158;59.280;17.806;2023-11-21T06:27:34;6.18;;;3.03;;
35667;SDS011;22158;59.280;17.806;2023-11-21T06:30:02;4.57;;;2.85;;
35667;SDS011;22158;59.280;17.806;2023-11-21T06:32:28;7.38;;;3.70;;
35667;SDS011;22158;59.280;17.806;2023-11-21T06:34:55;4.85;;;3.00;;
35667;SDS011;22158;59.280;17.806;2023-11-21T06:37:20;6.22;;;3.45;;
35667;SDS011;22158;59.280;17.806;2023-11-21T06:39:48;6.20;;;3.78;;
35667;SDS011;22158;59.280;17.806;2023-11-21T06:42:14;4.47;;;3.22;;
35667;SDS011;22158;59.280;17.806;2023-11-21T06:44:40;4.78;;;3.25;;
35667;SDS011;22158;59.280;17.806;2023-11-21T06:47:06;3.83;;;2.88;;
35667;SDS011;22158;59.280;17.806;2023-11-21T06:49:32;4.03;;;2.53;;
35667;SDS011;22158;59.280;17.806;2023-11-21T06:51:57;4.55;;;3.60;;
35667;SDS011;22158;59.280;17.806;2023-11-21T06:54:23;6.38;;;3.42;;
35667;SDS011;22158;59.280;17.806;2023-11-21T06:56:51;4.80;;;3.63;;
35667;SDS011;22158;59.280;17.806;2023-11-21T06:59:18;4.60;;;2.83;;
35667;SDS011;22158;59.280;17.806;2023-11-21T07:01:44;6.63;;;3.58;;
35667;SDS011;22158;59.280;17.806;2023-11-21T07:04:09;4.82;;;3.60;;
35667;SDS011;22158;59.280;17.806;2023-11-21T07:06:35;5.88;;;3.95;;
35667;SDS011;22158;59.280;17.806;2023-11-21T07:09:01;4.90;;;4.18;;
35667;SDS011;22158;59.280;17.806;2023-11-21T07:11:28;6.10;;;4.63;;
35667;SDS011;22158;59.280;17.806;2023-11-21T07:13:53;5.50;;;3.28;;
35667;SDS011;22158;59.280;17.806;2023-11-21T07:16:19;5.50;;;3.72;;
35667;SDS011;22158;59.280;17.806;2023-11-21T07:18:44;4.63;;;3.38;;
35667;SDS011;22158;59.280;17.806;2023-11-21T07:21:10;5.38;;;3.70;;
35667;SDS011;22158;59.280;17.806;2023-11-21T07:23:40;5.17;;;3.47;;
35667;SDS011;22158;59.280;17.806;2023-11-21T07:26:05;4.55;;;3.22;;
35667;SDS011;22158;59.280;17.806;2023-11-21T07:28:34;11.60;;;4.93;;
35667;SDS011;22158;59.280;17.806;2023-11-21T07:31:00;6.63;;;3.92;;
35667;SDS011;22158;59.280;17.806;2023-11-21T07:33:26;6.65;;;3.70;;
35667;SDS011;22158;59.280;17.806;2023-11-21T07:35:52;6.70;;;4.38;;
35667;SDS011;22158;59.280;17.806;2023-11-21T07:38:18;8.32;;;3.17;;
35667;SDS011;22158;59.280;17.806;2023-11-21T07:40:43;5.40;;;3.42;;
35667;SDS011;22158;59.280;17.806;2023-11-21T07:43:09;8.00;;;4.07;;
35667;SDS011;22158;59.280;17.806;2023-11-21T07:45:35;5.35;;;3.08;;
35667;SDS011;22158;59.280;17.806;2023-11-21T07:48:01;4.93;;;3.28;;
35667;SDS011;22158;59.280;17.806;2023-11-21T07:50:28;4.97;;;3.38;;
35667;SDS011;22158;59.280;17.806;2023-11-21T07:52:54;5.43;;;3.00;;
35667;SDS011;22158;59.280;17.806;2023-11-21T07:55:20;4.40;;;2.88;;
35667;SDS011;22158;59.280;17.806;2023-11-21T07:57:46;6.95;;;2.97;;
35667;SDS011;22158;59.280;17.806;2023-11-21T08:00:12;4.88;;;3.40;;
35667;SDS011;22158;59.280;17.806;2023-11-21T08:02:40;6.28;;;3.42;;
35667;SDS011;22158;59.280;17.806;2023-11-21T08:05:10;4.45;;;2.67;;
35667;SDS011;22158;59.280;17.806;2023-11-21T08:07:37;5.60;;;3.58;;
35667;SDS011;22158;59.280;17.806;2023-11-21T08:10:02;8.65;;;5.18;;
35667;SDS011;22158;59.280;17.806;2023-11-21T08:12:29;8.23;;;6.15;;
35667;SDS011;22158;59.280;17.806;2023-11-21T08:14:55;12.43;;;7.40;;
35667;SDS011;22158;59.280;17.806;2023-11-21T08:17:21;7.25;;;4.97;;
35667;SDS011;22158;59.280;17.806;2023-11-21T08:19:47;6.00;;;4.93;;
35667;SDS011;22158;59.280;17.806;2023-11-21T08:22:15;5.30;;;3.67;;
35667;SDS011;22158;59.280;17.806;2023-11-21T08:24:42;5.95;;;4.13;;
35667;SDS011;22158;59.280;17.806;2023-11-21T08:27:08;12.45;;;10.05;;
35667;SDS011;22158;59.280;17.806;2023-11-21T08:29:34;7.50;;;4.60;;
35667;SDS011;22158;59.280;17.806;2023-11-21T08:32:01;6.65;;;2.90;;
35667;SDS011;22158;59.280;17.806;2023-11-21T08:34:27;6.65;;;3.63;;
35667;SDS011;22158;59.280;17.806;2023-11-21T08:36:53;5.88;;;4.03;;
35667;SDS011;22158;59.280;17.806;2023-11-21T08:39:20;6.18;;;3.40;;
35667;SDS011;22158;59.280;17.806;2023-11-21T08:41:49;5.78;;;3.42;;
35667;SDS011;22158;59.280;17.806;2023-11-21T08:44:15;5.72;;;3.45;;
35667;SDS011;22158;59.280;17.806;2023-11-21T08:46:43;6.07;;;2.90;;
35667;SDS011;22158;59.280;17.806;2023-11-21T08:49:10;7.10;;;4.93;;
35667;SDS011;22158;59.280;17.806;2023-11-21T08:51:36;13.25;;;9.68;;
35667;SDS011;22158;59.280;17.806;2023-11-21T08:54:02;5.28;;;3.35;;
35667;SDS011;22158;59.280;17.806;2023-11-21T08:56:29;9.95;;;4.25;;
35667;SDS011;22158;59.280;17.806;2023-11-21T08:58:55;5.53;;;2.97;;
35667;SDS011;22158;59.280;17.806;2023-11-21T09:01:22;5.60;;;3.00;;
35667;SDS011;22158;59.280;17.806;2023-11-21T09:03:48;3.97;;;2.92;;
35667;SDS011;22158;59.280;17.806;2023-11-21T09:06:15;6.75;;;4.30;;
35667;SDS011;22158;59.280;17.806;2023-11-21T09:08:40;6.63;;;4.07;;
35667;SDS011;22158;59.280;17.806;2023-11-21T09:11:07;6.85;;;4.20;;
35667;SDS011;22158;59.280;17.806;2023-11-21T09:13:33;5.60;;;3.78;;
35667;SDS011;22158;59.280;17.806;2023-11-21T09:15:59;10.65;;;5.78;;
35667;SDS011;22158;59.280;17.806;2023-11-21T09:18:25;6.80;;;3.97;;
35667;SDS011;22158;59.280;17.806;2023-11-21T09:20:50;7.38;;;4.60;;
35667;SDS011;22158;59.280;17.806;2023-11-21T09:23:16;8.82;;;4.55;;
35667;SDS011;22158;59.280;17.806;2023-11-21T09:25:42;9.77;;;5.88;;
35667;SDS011;22158;59.280;17.806;2023-11-21T09:28:11;7.20;;;5.60;;
35667;SDS011;22158;59.280;17.806;2023-11-21T09:30:37;8.98;;;4.90;;
35667;SDS011;22158;59.280;17.806;2023-11-21T09:33:03;6.95;;;4.55;;
35667;SDS011;22158;59.280;17.806;2023-11-21T09:35:33;8.48;;;3.92;;
35667;SDS011;22158;59.280;17.806;2023-11-21T09:37:59;8.10;;;4.05;;
35667;SDS011;22158;59.280;17.806;2023-11-21T09:40:26;8.07;;;3.28;;
35667;SDS011;22158;59.280;17.806;2023-11-21T09:42:54;4.47;;;2.78;;
35667;SDS011;22158;59.280;17.806;2023-11-21T09:45:27;4.70;;;2.85;;
35667;SDS011;22158;59.280;17.806;2023-11-21T09:47:54;5.80;;;3.50;;
35667;SDS011;22158;59.280;17.806;2023-11-21T09:50:20;7.63;;;3.13;;
35667;SDS011;22158;59.280;17.806;2023-11-21T09:53:09;3.40;;;2.30;;
35667;SDS011;22158;59.280;17.806;2023-11-21T09:55:43;7.25;;;3.20;;
35667;SDS011;22158;59.280;17.806;2023-11-21T09:58:10;4.60;;;3.25;;
35667;SDS011;22158;59.280;17.806;2023-11-21T10:00:43;4.47;;;2.72;;
35667;SDS011;22158;59.280;17.806;2023-11-21T10:03:09;3.15;;;2.10;;
35667;SDS011;22158;59.280;17.806;2023-11-21T10:05:36;4.28;;;2.63;;
35667;SDS011;22158;59.280;17.806;2023-11-21T10:08:12;4.95;;;2.13;;
35667;SDS011;22158;59.280;17.806;2023-11-21T10:10:42;2.72;;;2.13;;
35667;SDS011;22158;59.280;17.806;2023-11-21T10:13:15;3.60;;;2.45;;
35667;SDS011;22158;59.280;17.806;2023-11-21T10:15:43;3.65;;;2.38;;
35667;SDS011;22158;59.280;17.806;2023-11-21T10:18:13;4.55;;;2.25;;
35667;SDS011;22158;59.280;17.806;2023-11-21T10:20:40;3.83;;;2.50;;
35667;SDS011;22158;59.280;17.806;2023-11-21T10:23:06;3.58;;;2.50;;
35667;SDS011;22158;59.280;17.806;2023-11-21T10:25:36;4.70;;;2.75;;
35667;SDS011;22158;59.280;17.806;2023-11-21T10:28:02;6.78;;;2.95;;
35667;SDS011;22158;59.280;17.806;2023-11-21T10:30:32;4.22;;;2.47;;
35667;SDS011;22158;59.280;17.806;2023-11-21T10:33:02;5.00;;;2.55;;
35667;SDS011;22158;59.280;17.806;2023-11-21T10:35:49;4.20;;;2.72;;
35667;SDS011;22158;59.280;17.806;2023-11-21T10:38:19;3.95;;;2.13;;
35667;SDS011;22158;59.280;17.806;2023-11-21T10:40:48;2.75;;;2.13;;
35667;SDS011;22158;59.280;17.806;2023-11-21T10:43:14;4.43;;;2.45;;
35667;SDS011;22158;59.280;17.806;2023-11-21T10:45:41;6.45;;;2.83;;
35667;SDS011;22158;59.280;17.806;2023-11-21T10:48:08;4.90;;;2.88;;
35667;SDS011;22158;59.280;17.806;2023-11-21T10:50:45;5.13;;;2.75;;
35667;SDS011;22158;59.280;17.806;2023-11-21T10:53:12;6.88;;;2.35;;
35667;SDS011;22158;59.280;17.806;2023-11-21T10:55:38;3.55;;;2.55;;
35667;SDS011;22158;59.280;17.806;2023-11-21T10:58:05;4.82;;;2.53;;
35667;SDS011;22158;59.280;17.806;2023-11-21T11:00:33;3.33;;;2.53;;
35667;SDS011;22158;59.280;17.806;2023-11-21T11:03:00;3.65;;;2.58;;
35667;SDS011;22158;59.280;17.806;2023-11-21T11:05:27;3.45;;;2.35;;
35667;SDS011;22158;59.280;17.806;2023-11-21T11:08:04;4.57;;;2.65;;
35667;SDS011;22158;59.280;17.806;2023-11-21T11:10:30;4.28;;;2.72;;
35667;SDS011;22158;59.280;17.806;2023-11-21T11:12:57;6.75;;;2.90;;
35667;SDS011;22158;59.280;17.806;2023-11-21T11:15:24;7.25;;;3.10;;
35667;SDS011;22158;59.280;17.806;2023-11-21T11:17:51;4.30;;;2.80;;
35667;SDS011;22158;59.280;17.806;2023-11-21T11:20:21;4.55;;;2.88;;
35667;SDS011;22158;59.280;17.806;2023-11-21T11:34:08;4.25;;;3.05;;
35667;SDS011;22158;59.280;17.806;2023-11-21T11:36:44;6.55;;;3.08;;
35667;SDS011;22158;59.280;17.806;2023-11-21T11:39:27;4.32;;;3.10;;
35667;SDS011;22158;59.280;17.806;2023-11-21T11:42:02;5.07;;;3.20;;
35667;SDS011;22158;59.280;17.806;2023-11-21T11:44:46;6.05;;;3.90;;
35667;SDS011;22158;59.280;17.806;2023-11-21T11:47:16;4.88;;;2.92;;
35667;SDS011;22158;59.280;17.806;2023-11-21T11:52:36;6.05;;;3.15;;
35667;SDS011;22158;59.280;17.806;2023-11-21T11:55:12;5.72;;;3.25;;
35667;SDS011;22158;59.280;17.806;2023-11-21T11:57:41;3.60;;;2.75;;
35667;SDS011;22158;59.280;17.806;2023-11-21T12:00:11;3.97;;;2.90;;
35667;SDS011;22158;59.280;17.806;2023-11-21T12:02:59;3.78;;;2.60;;
35667;SDS011;22158;59.280;17.806;2023-11-21T12:05:31;4.70;;;2.97;;
35667;SDS011;22158;59.280;17.806;2023-11-21T12:07:59;3.65;;;2.55;;
35667;SDS011;22158;59.280;17.806;2023-11-21T12:10:27;5.25;;;2.80;;
35667;SDS011;22158;59.280;17.806;2023-11-21T12:13:00;5.53;;;2.80;;
35667;SDS011;22158;59.280;17.806;2023-11-21T12:15:27;4.07;;;2.75;;
35667;SDS011;22158;59.280;17.806;2023-11-21T12:17:56;4.95;;;3.00;;
35667;SDS011;22158;59.280;17.806;2023-11-21T12:20:24;6.10;;;3.85;;
35667;SDS011;22158;59.280;17.806;2023-11-21T12:22:52;7.55;;;3.70;;
35667;SDS011;22158;59.280;17.806;2023-11-21T12:25:22;6.90;;;3.53;;
35667;SDS011;22158;59.280;17.806;2023-11-21T12:27:52;4.82;;;3.28;;
35667;SDS011;22158;59.280;17.806;2023-11-21T12:30:19;5.38;;;3.55;;
35667;SDS011;22158;59.280;17.806;2023-11-21T12:32:50;4.68;;;3.67;;
35667;SDS011;22158;59.280;17.806;2023-11-21T12:35:17;5.35;;;3.53;;
35667;SDS011;22158;59.280;17.806;2023-11-21T12:37:48;7.18;;;3.65;;
35667;SDS011;22158;59.280;17.806;2023-11-21T12:40:14;7.93;;;3.47;;
35667;SDS011;22158;59.280;17.806;2023-11-21T12:42:41;5.13;;;3.55;;
35667;SDS011;22158;59.280;17.806;2023-11-21T12:45:08;5.13;;;2.85;;
35667;SDS011;22158;59.280;17.806;2023-11-21T12:47:55;5.80;;;3.38;;
35667;SDS011;22158;59.280;17.806;2023-11-21T12:50:24;4.63;;;3.17;;
35667;SDS011;22158;59.280;17.806;2023-11-21T12:52:54;3.72;;;2.78;;
35667;SDS011;22158;59.280;17.806;2023-11-21T12:55:23;5.97;;;2.80;;
35667;SDS011;22158;59.280;17.806;2023-11-21T12:57:51;4.82;;;3.33;;
35667;SDS011;22158;59.280;17.806;2023-11-21T13:00:19;4.75;;;3.08;;
35667;SDS011;22158;59.280;17.806;2023-11-21T13:02:53;4.57;;;2.95;;
35667;SDS011;22158;59.280;17.806;2023-11-21T13:07:51;6.20;;;3.40;;
35667;SDS011;22158;59.280;17.806;2023-11-21T13:10:19;5.15;;;3.35;;
35667;SDS011;22158;59.280;17.806;2023-11-21T13:12:51;7.90;;;3.72;;
35667;SDS011;22158;59.280;17.806;2023-11-21T13:15:17;6.43;;;3.67;;
35667;SDS011;22158;59.280;17.806;2023-11-21T13:17:43;4.82;;;3.55;;
35667;SDS011;22158;59.280;17.806;2023-11-21T13:20:10;4.25;;;3.55;;
35667;SDS011;22158;59.280;17.806;2023-11-21T13:22:50;5.78;;;3.55;;
35667;SDS011;22158;59.280;17.806;2023-11-21T13:25:27;4.93;;;2.17;;
35667;SDS011;22158;59.280;17.806;2023-11-21T13:27:59;4.78;;;2.63;;
35667;SDS011;22158;59.280;17.806;2023-11-21T13:30:28;3.78;;;1.98;;
35667;SDS011;22158;59.280;17.806;2023-11-21T13:33:01;4.13;;;2.42;;
35667;SDS011;22158;59.280;17.806;2023-11-21T13:35:33;3.40;;;2.22;;
35667;SDS011;22158;59.280;17.806;2023-11-21T13:38:06;3.17;;;1.70;;
35667;SDS011;22158;59.280;17.806;2023-11-21T13:40:36;3.60;;;2.40;;
35667;SDS011;22158;59.280;17.806;2023-11-21T13:43:09;3.70;;;1.67;;
35667;SDS011;22158;59.280;17.806;2023-11-21T13:45:36;3.13;;;2.05;;
35667;SDS011;22158;59.280;17.806;2023-11-21T13:48:04;5.72;;;3.03;;
35667;SDS011;22158;59.280;17.806;2023-11-21T13:50:35;3.10;;;2.38;;
35667;SDS011;22158;59.280;17.806;2023-11-21T13:53:04;3.33;;;2.20;;
35667;SDS011;22158;59.280;17.806;2023-11-21T13:55:41;3.08;;;1.92;;
35667;SDS011;22158;59.280;17.806;2023-11-21T13:58:07;4.97;;;1.95;;
35667;SDS011;22158;59.280;17.806;2023-11-21T14:00:34;2.85;;;1.90;;
35667;SDS011;22158;59.280;17.806;2023-11-21T14:03:11;3.22;;;1.58;;
35667;SDS011;22158;59.280;17.806;2023-11-21T14:05:50;6.60;;;2.20;;
35667;SDS011;22158;59.280;17.806;2023-11-21T14:08:20;5.28;;;1.80;;
35667;SDS011;22158;59.280;17.806;2023-11-21T14:10:49;2.90;;;1.80;;
35667;SDS011;22158;59.280;17.806;2023-11-21T14:13:22;2.38;;;1.60;;
35667;SDS011;22158;59.280;17.806;2023-11-21T14:15:49;4.00;;;2.08;;
35667;SDS011;22158;59.280;17.806;2023-11-21T14:18:26;2.72;;;1.77;;
35667;SDS011;22158;59.280;17.806;2023-11-21T14:20:56;3.22;;;1.92;;
35667;SDS011;22158;59.280;17.806;2023-11-21T14:23:22;2.45;;;1.70;;
35667;SDS011;22158;59.280;17.806;2023-11-21T14:25:48;3.65;;;2.28;;
35667;SDS011;22158;59.280;17.806;2023-11-21T14:28:14;4.68;;;1.90;;
35667;SDS011;22158;59.280;17.806;2023-11-21T14:30:40;3.17;;;2.00;;
35667;SDS011;22158;59.280;17.806;2023-11-21T14:33:07;2.28;;;1.77;;
35667;SDS011;22158;59.280;17.806;2023-11-21T14:35:34;3.40;;;2.15;;
35667;SDS011;22158;59.280;17.806;2023-11-21T14:38:00;4.05;;;2.00;;
35667;SDS011;22158;59.280;17.806;2023-11-21T14:40:29;3.17;;;2.08;;
35667;SDS011;22158;59.280;17.806;2023-11-21T14:43:00;1.98;;;1.58;;
35667;SDS011;22158;59.280;17.806;2023-11-21T14:45:28;3.50;;;2.20;;
35667;SDS011;22158;59.280;17.806;2023-11-21T14:47:54;4.43;;;2.00;;
35667;SDS011;22158;59.280;17.806;2023-11-21T14:50:46;2.90;;;2.22;;
35667;SDS011;22158;59.280;17.806;2023-11-21T14:53:27;2.90;;;1.80;;